Terminal Aerodrome Forecast
Issued by NWS

Home | Current Version | Previous Version | Text Only | Print | Product List | Glossary Off
Versions: 1 2 3 4 5 6 7 8 9 10 11 12 13 14 15 16

000
FTUS43 KDLH 021647 AAA
TAFBRD
TAF AMD
KBRD 021647Z 0217/0312 30007KT P6SM FEW025 SCT060
     FM021900 33011G19KT P6SM VCSH SCT060
     FM022100 32014G24KT P6SM FEW070
     FM030200 30003KT P6SM SKC=

USA.gov is the U.S. government's official web portal to all federal, state and local government web resources and services.